createdAt,value
2019-02-04T00:00:50.216Z,17.50
2019-02-04T00:03:17.818Z,17.57
2019-02-04T00:05:44.682Z,15.77
2019-02-04T00:08:11.535Z,17.33
2019-02-04T00:10:38.459Z,15.50
2019-02-04T00:13:06.191Z,17.90
2019-02-04T00:15:33.350Z,19.40
2019-02-04T00:18:00.307Z,17.80
2019-02-04T00:20:27.243Z,23.50
2019-02-04T00:22:54.249Z,22.90
2019-02-04T00:25:21.667Z,23.17
2019-02-04T00:27:48.619Z,20.97
2019-02-04T00:30:15.884Z,18.13
2019-02-04T00:32:42.716Z,16.27
2019-02-04T00:35:09.771Z,18.73
2019-02-04T00:37:36.516Z,17.23
2019-02-04T00:40:05.355Z,21.70
2019-02-04T00:42:32.157Z,17.00
2019-02-04T00:44:58.911Z,16.30
2019-02-04T00:47:25.978Z,14.93
2019-02-04T00:49:52.715Z,17.30
2019-02-04T00:52:19.623Z,14.00
2019-02-04T00:54:46.537Z,17.27
2019-02-04T00:57:13.300Z,22.67
2019-02-04T00:59:40.049Z,19.63
2019-02-04T01:02:07.001Z,20.53
2019-02-04T01:04:34.462Z,18.77
2019-02-04T01:07:01.323Z,19.57
2019-02-04T01:09:28.326Z,17.20
2019-02-04T01:11:55.234Z,16.87
2019-02-04T01:14:22.079Z,17.23
2019-02-04T01:16:48.927Z,20.40
2019-02-04T01:19:15.963Z,16.13
2019-02-04T01:21:43.234Z,19.57
2019-02-04T01:24:10.095Z,17.20
2019-02-04T01:26:36.907Z,19.17
2019-02-04T01:29:04.350Z,18.63
2019-02-04T01:31:31.402Z,18.30
2019-02-04T01:33:58.269Z,20.27
2019-02-04T01:36:25.418Z,21.57
2019-02-04T01:38:52.618Z,18.27
2019-02-04T01:41:19.567Z,27.37
2019-02-04T01:43:46.438Z,19.60
2019-02-04T01:46:13.295Z,24.57
2019-02-04T01:48:40.058Z,20.27
2019-02-04T01:51:06.904Z,17.43
2019-02-04T01:53:33.742Z,22.77
2019-02-04T01:56:01.052Z,23.57
2019-02-04T01:58:27.947Z,24.97
2019-02-04T02:00:54.908Z,19.53
2019-02-04T02:03:21.675Z,20.57
2019-02-04T02:05:48.823Z,18.77
2019-02-04T02:08:15.710Z,19.83
2019-02-04T02:10:42.691Z,20.47
2019-02-04T02:13:09.531Z,18.90
2019-02-04T02:15:36.410Z,17.43
2019-02-04T02:18:10.608Z,20.90
2019-02-04T02:20:40.876Z,22.70
2019-02-04T02:23:07.896Z,18.73
2019-02-04T02:25:45.589Z,18.67
2019-02-04T02:28:15.379Z,17.30
2019-02-04T02:30:41.594Z,23.17
2019-02-04T02:33:08.467Z,21.73
2019-02-04T02:35:35.331Z,19.13
2019-02-04T02:38:02.281Z,19.77
2019-02-04T02:40:31.240Z,19.83
2019-02-04T02:42:58.648Z,21.00
2019-02-04T02:45:25.711Z,19.57
2019-02-04T02:47:52.580Z,18.73
2019-02-04T02:50:19.625Z,22.03
2019-02-04T02:52:46.635Z,17.67
2019-02-04T02:55:14.074Z,21.13
2019-02-04T02:57:41.039Z,20.17
2019-02-04T03:00:11.559Z,20.67
2019-02-04T03:02:38.515Z,20.03
2019-02-04T03:05:06.959Z,27.93
2019-02-04T03:07:33.800Z,19.10
2019-02-04T03:10:00.692Z,21.73
2019-02-04T03:12:27.576Z,23.13
2019-02-04T03:14:54.411Z,18.07
2019-02-04T03:17:21.695Z,19.93
2019-02-04T03:19:48.427Z,19.13
2019-02-04T03:22:15.140Z,17.63
2019-02-04T03:24:41.884Z,23.23
2019-02-04T03:27:08.819Z,19.30
2019-02-04T03:29:35.782Z,24.20
2019-02-04T03:32:02.754Z,23.13
2019-02-04T03:34:29.887Z,22.33
2019-02-04T03:36:56.659Z,19.53
2019-02-04T03:39:23.602Z,18.73
2019-02-04T03:41:50.370Z,20.73
2019-02-04T03:44:17.248Z,20.83
2019-02-04T03:46:44.131Z,20.00
2019-02-04T03:49:11.109Z,24.07
2019-02-04T03:51:38.331Z,20.40
2019-02-04T03:54:05.267Z,19.23
2019-02-04T03:56:32.164Z,20.53
2019-02-04T03:58:58.988Z,22.87
2019-02-04T04:01:25.845Z,23.17
2019-02-04T04:03:52.627Z,24.03
2019-02-04T04:06:19.467Z,18.57
2019-02-04T04:08:46.211Z,21.93
2019-02-04T04:11:13.161Z,22.23
2019-02-04T04:13:39.898Z,22.83
2019-02-04T04:16:06.851Z,18.00
2019-02-04T04:18:33.712Z,21.60
2019-02-04T04:21:00.562Z,23.73
2019-02-04T04:23:27.413Z,20.77
2019-02-04T04:25:54.399Z,18.87
2019-02-04T04:28:21.531Z,21.47
2019-02-04T04:30:48.541Z,18.13
2019-02-04T04:33:15.315Z,24.77
2019-02-04T04:35:42.058Z,18.20
2019-02-04T04:38:09.067Z,19.23
2019-02-04T04:40:35.838Z,22.03
2019-02-04T04:43:02.679Z,16.33
2019-02-04T04:45:30.235Z,22.73
2019-02-04T04:47:57.115Z,18.80
2019-02-04T04:50:24.271Z,21.37
2019-02-04T04:52:51.226Z,27.17
2019-02-04T04:55:20.668Z,20.00
2019-02-04T04:57:47.739Z,25.77
2019-02-04T05:00:18.247Z,25.40
2019-02-04T05:02:45.187Z,22.00
2019-02-04T05:05:12.427Z,21.17
2019-02-04T05:07:41.129Z,21.10
2019-02-04T05:10:10.118Z,22.23
2019-02-04T05:12:37.151Z,20.90
2019-02-04T05:15:05.038Z,22.23
2019-02-04T05:17:32.396Z,20.23
2019-02-04T05:20:06.303Z,23.97
2019-02-04T05:22:33.143Z,25.07
2019-02-04T05:25:03.955Z,20.43
2019-02-04T05:27:30.831Z,21.23
2019-02-04T05:29:57.746Z,36.23
2019-02-04T05:32:24.935Z,29.57
2019-02-04T05:34:51.679Z,25.30
2019-02-04T05:37:18.396Z,27.47
2019-02-04T05:39:45.323Z,26.27
2019-02-04T05:42:12.354Z,24.83
2019-02-04T05:44:39.179Z,29.73
2019-02-04T05:47:06.040Z,25.70
2019-02-04T05:49:32.920Z,22.40
2019-02-04T05:51:59.824Z,21.53
2019-02-04T05:54:26.711Z,21.37
2019-02-04T05:56:53.694Z,20.87
2019-02-04T05:59:20.607Z,22.87
2019-02-04T06:01:47.356Z,28.43
2019-02-04T06:04:14.185Z,21.90
2019-02-04T06:06:41.047Z,23.43
2019-02-04T06:09:08.424Z,26.97
2019-02-04T06:11:35.403Z,25.60
2019-02-04T06:14:02.480Z,22.07
2019-02-04T06:16:29.243Z,25.10
2019-02-04T06:19:00.865Z,25.23
2019-02-04T06:21:24.686Z,22.60
2019-02-04T06:23:51.587Z,23.03
2019-02-04T06:26:18.810Z,23.17
2019-02-04T06:28:45.563Z,25.67
2019-02-04T06:31:12.566Z,22.87
2019-02-04T06:33:39.378Z,22.70
2019-02-04T06:36:06.351Z,27.17
2019-02-04T06:38:33.285Z,27.47
2019-02-04T06:41:00.322Z,26.57
2019-02-04T06:43:27.582Z,24.23
2019-02-04T06:45:54.590Z,25.37
2019-02-04T06:48:21.455Z,26.23
2019-02-04T06:50:50.925Z,25.33
2019-02-04T06:53:17.207Z,28.30
2019-02-04T06:55:44.048Z,25.77
2019-02-04T06:58:10.944Z,32.07
2019-02-04T07:00:37.667Z,37.77
2019-02-04T07:03:04.668Z,36.53
2019-02-04T07:05:31.380Z,32.83
2019-02-04T07:07:58.090Z,29.83
2019-02-04T07:10:25.294Z,31.03
2019-02-04T07:12:52.239Z,24.73
2019-02-04T07:15:19.079Z,24.43
2019-02-04T07:17:46.037Z,22.20
2019-02-04T07:20:19.051Z,24.60
2019-02-04T07:22:46.019Z,23.77
2019-02-04T07:25:14.049Z,20.83
2019-02-04T07:27:41.146Z,20.20
2019-02-04T07:30:11.247Z,19.70
2019-02-04T07:32:37.986Z,16.23
2019-02-04T07:35:06.179Z,19.17
2019-02-04T07:37:33.051Z,17.57
2019-02-04T07:39:59.895Z,15.80
2019-02-04T07:42:26.630Z,15.37
2019-02-04T07:44:53.496Z,14.67
2019-02-04T07:47:20.358Z,16.60
2019-02-04T07:49:47.139Z,17.67
2019-02-04T07:52:13.984Z,15.00
2019-02-04T07:54:41.269Z,17.40
2019-02-04T07:57:08.255Z,14.60
2019-02-04T07:59:35.127Z,13.53
2019-02-04T08:02:02.035Z,13.90
2019-02-04T08:04:28.788Z,13.47
2019-02-04T08:06:55.542Z,16.87
2019-02-04T08:09:22.340Z,14.47
2019-02-04T08:11:49.771Z,16.80
2019-02-04T08:14:16.709Z,15.63
2019-02-04T08:16:43.596Z,17.33
2019-02-04T08:19:10.483Z,19.33
2019-02-04T08:21:37.275Z,15.67
2019-02-04T08:24:04.266Z,26.90
2019-02-04T08:26:30.992Z,16.57
2019-02-04T08:28:57.734Z,15.37
2019-02-04T08:31:24.847Z,17.33
2019-02-04T08:33:51.711Z,17.90
2019-02-04T08:36:18.699Z,19.17
2019-02-04T08:38:45.659Z,16.97
2019-02-04T08:41:12.535Z,17.13
2019-02-04T08:43:39.395Z,17.90
2019-02-04T08:46:06.352Z,20.67
2019-02-04T08:48:33.226Z,23.90
2019-02-04T08:50:59.946Z,18.83
2019-02-04T08:53:26.840Z,21.33
2019-02-04T08:55:53.694Z,17.70
2019-02-04T08:58:20.667Z,20.00
2019-02-04T09:00:47.543Z,19.40
2019-02-04T09:03:14.446Z,20.87
2019-02-04T09:05:41.389Z,20.87
2019-02-04T09:08:08.480Z,19.07
2019-02-04T09:10:35.780Z,24.00
2019-02-04T09:13:02.706Z,18.20
2019-02-04T09:15:29.569Z,22.80
2019-02-04T09:17:57.327Z,22.27
2019-02-04T09:20:24.590Z,24.77
2019-02-04T09:22:51.772Z,24.23
2019-02-04T09:25:18.817Z,25.27
2019-02-04T09:27:46.263Z,28.43
2019-02-04T09:30:18.198Z,28.70
2019-02-04T09:32:45.229Z,27.63
2019-02-04T09:35:13.276Z,27.93
2019-02-04T09:37:40.219Z,25.43
2019-02-04T09:40:10.679Z,22.53
2019-02-04T09:42:37.627Z,18.90
2019-02-04T09:45:06.891Z,21.93
2019-02-04T09:47:33.751Z,16.53
2019-02-04T09:50:00.681Z,18.67
2019-02-04T09:52:27.791Z,18.97
2019-02-04T09:54:54.674Z,13.93
2019-02-04T09:57:21.411Z,17.50
2019-02-04T09:59:48.196Z,17.97
2019-02-04T10:02:15.451Z,14.63
2019-02-04T10:04:42.199Z,13.80
2019-02-04T10:07:09.197Z,16.93
2019-02-04T10:09:36.178Z,15.00
2019-02-04T10:12:03.259Z,11.90
2019-02-04T10:14:30.108Z,15.07
2019-02-04T10:16:57.182Z,15.70
2019-02-04T10:19:24.057Z,15.10
2019-02-04T10:21:53.874Z,13.53
2019-02-04T10:24:19.745Z,13.27
2019-02-04T10:26:46.792Z,18.87
2019-02-04T10:29:13.667Z,12.93
2019-02-04T10:31:40.477Z,15.63
2019-02-04T10:34:07.503Z,17.53
2019-02-04T10:36:34.571Z,15.30
2019-02-04T10:39:01.444Z,18.20
2019-02-04T10:41:28.645Z,18.97
2019-02-04T10:43:55.631Z,16.33
2019-02-04T10:46:22.724Z,18.03
2019-02-04T10:48:49.557Z,17.97
2019-02-04T10:51:16.659Z,19.90
2019-02-04T10:53:43.648Z,15.67
2019-02-04T10:56:10.992Z,18.57
2019-02-04T10:58:37.995Z,16.03
2019-02-04T11:01:05.157Z,16.93
2019-02-04T11:03:32.007Z,25.20
2019-02-04T11:05:58.947Z,16.70
2019-02-04T11:08:25.805Z,18.37
2019-02-04T11:10:52.730Z,19.03
2019-02-04T11:13:19.960Z,18.60
2019-02-04T11:15:47.098Z,18.00
2019-02-04T11:18:14.562Z,17.23
2019-02-04T11:20:41.667Z,17.93
2019-02-04T11:23:09.086Z,18.47
2019-02-04T11:25:36.088Z,17.83
2019-02-04T11:28:04.985Z,22.03
2019-02-04T11:30:35.065Z,20.70
2019-02-04T11:33:02.096Z,18.70
2019-02-04T11:35:29.285Z,17.07
2019-02-04T11:37:56.401Z,19.10
2019-02-04T11:40:26.297Z,26.27
2019-02-04T11:42:53.407Z,21.13
2019-02-04T11:45:20.470Z,19.20
2019-02-04T11:47:48.062Z,20.93
2019-02-04T11:50:15.362Z,18.57
2019-02-04T11:52:42.336Z,20.97
2019-02-04T11:55:10.530Z,18.73
2019-02-04T11:57:37.496Z,18.53
2019-02-04T12:00:07.272Z,22.33
2019-02-04T12:02:34.963Z,19.37
2019-02-04T12:05:02.049Z,16.70
2019-02-04T12:07:28.993Z,20.83
2019-02-04T12:09:55.727Z,22.20
2019-02-04T12:12:24.906Z,22.27
2019-02-04T12:14:51.669Z,17.47
2019-02-04T12:17:18.437Z,24.90
2019-02-04T12:19:45.315Z,21.10
2019-02-04T12:22:12.599Z,20.70
2019-02-04T12:24:39.551Z,19.53
2019-02-04T12:27:06.518Z,24.50
2019-02-04T12:29:33.477Z,20.73
2019-02-04T12:32:00.392Z,20.07
2019-02-04T12:34:27.339Z,18.80
2019-02-04T12:36:54.371Z,17.77
2019-02-04T12:39:22.234Z,19.70
2019-02-04T12:41:50.803Z,19.03
2019-02-04T12:44:17.921Z,18.97
2019-02-04T12:46:44.848Z,19.27
2019-02-04T12:49:11.719Z,23.43
2019-02-04T12:51:38.651Z,23.60
2019-02-04T12:54:05.637Z,19.50
2019-02-04T12:56:32.471Z,20.70
2019-02-04T12:58:59.574Z,20.73
2019-02-04T13:01:26.511Z,27.17
2019-02-04T13:03:53.276Z,16.97
2019-02-04T13:06:20.223Z,19.23
2019-02-04T13:08:47.203Z,19.87
2019-02-04T13:11:14.063Z,19.63
2019-02-04T13:13:41.220Z,21.97
2019-02-04T13:16:08.609Z,19.53
2019-02-04T13:18:35.450Z,20.07
2019-02-04T13:21:02.514Z,26.40
2019-02-04T13:23:29.240Z,21.23
2019-02-04T13:25:56.046Z,18.67
2019-02-04T13:28:22.988Z,19.80
2019-02-04T13:30:49.955Z,18.83
2019-02-04T13:33:17.471Z,18.60
2019-02-04T13:35:44.623Z,18.60
2019-02-04T13:38:11.558Z,21.43
2019-02-04T13:40:40.635Z,20.33
2019-02-04T13:43:07.607Z,17.60
2019-02-04T13:45:34.457Z,21.93
2019-02-04T13:48:01.447Z,17.03
2019-02-04T13:50:28.707Z,15.37
2019-02-04T13:52:55.778Z,16.67
2019-02-04T13:55:25.563Z,17.10
2019-02-04T13:57:52.568Z,18.97
2019-02-04T14:00:19.815Z,17.50
2019-02-04T14:02:58.556Z,16.70
2019-02-04T14:05:16.014Z,15.93
2019-02-04T14:07:42.997Z,14.13
2019-02-04T14:10:18.867Z,12.17
2019-02-04T14:12:46.131Z,9.83
2019-02-04T14:15:13.667Z,11.93
2019-02-04T14:17:40.623Z,12.87
2019-02-04T14:20:10.559Z,15.20
2019-02-04T14:22:37.306Z,12.17
2019-02-04T14:25:04.974Z,10.10
2019-02-04T14:27:32.270Z,11.17
2019-02-04T14:29:59.257Z,10.53
2019-02-04T14:32:26.264Z,7.37
2019-02-04T14:34:54.681Z,10.27
2019-02-04T14:37:21.991Z,9.50
2019-02-04T14:39:48.843Z,10.83
2019-02-04T14:42:16.947Z,13.73
2019-02-04T14:44:51.891Z,11.23
2019-02-04T14:47:26.915Z,13.57
2019-02-04T14:50:05.365Z,9.97
2019-02-04T14:53:19.368Z,11.03
2019-02-04T14:56:36.133Z,10.73
2019-02-04T14:59:12.399Z,11.93
2019-02-04T15:02:02.855Z,17.07
2019-02-04T15:05:35.523Z,13.73
2019-02-04T15:08:42.927Z,10.47
2019-02-04T15:11:43.677Z,11.97
2019-02-04T15:14:52.483Z,14.53
2019-02-04T15:17:50.587Z,15.53
2019-02-04T15:21:13.778Z,9.93
2019-02-04T15:23:52.563Z,10.60
2019-02-04T15:26:57.263Z,13.33
2019-02-04T15:29:46.249Z,13.87
2019-02-04T15:32:44.872Z,13.77
2019-02-04T15:35:55.454Z,12.53
2019-02-04T15:38:46.681Z,14.07
2019-02-04T15:41:34.944Z,12.90
2019-02-04T15:44:58.889Z,12.47
2019-02-04T15:47:42.026Z,14.37
2019-02-04T15:50:52.895Z,11.97
2019-02-04T15:53:19.767Z,13.27
2019-02-04T15:55:46.645Z,16.67
2019-02-04T15:58:13.528Z,14.93
2019-02-04T16:00:40.404Z,13.33
2019-02-04T16:03:07.412Z,14.50
2019-02-04T16:05:34.375Z,17.60
2019-02-04T16:08:01.243Z,15.63
2019-02-04T16:10:28.223Z,16.10
2019-02-04T16:12:55.094Z,19.07
2019-02-04T16:15:22.075Z,14.87
2019-02-04T16:17:49.322Z,17.87
2019-02-04T16:20:22.176Z,14.73
2019-02-04T16:22:58.077Z,20.73
2019-02-04T16:25:18.487Z,15.97
2019-02-04T16:27:45.504Z,16.50
2019-02-04T16:30:15.407Z,20.90
2019-02-04T16:32:42.362Z,17.57
2019-02-04T16:35:11.919Z,18.47
2019-02-04T16:37:38.911Z,15.90
2019-02-04T16:40:10.146Z,16.53
2019-02-04T16:42:36.030Z,17.90
2019-02-04T16:45:04.263Z,23.17
2019-02-04T16:47:31.297Z,14.73
2019-02-04T16:49:58.277Z,15.30
2019-02-04T16:52:25.318Z,15.03
2019-02-04T16:54:52.062Z,11.83
2019-02-04T16:57:18.932Z,20.30
2019-02-04T16:59:45.763Z,18.70
2019-02-04T17:02:12.778Z,14.60
2019-02-04T17:04:39.665Z,11.33
2019-02-04T17:07:06.665Z,17.33
2019-02-04T17:09:33.405Z,16.30
2019-02-04T17:12:00.251Z,15.07
2019-02-04T17:14:27.107Z,13.63
2019-02-04T17:16:54.089Z,14.00
2019-02-04T17:19:20.971Z,16.87
2019-02-04T17:21:47.723Z,10.93
2019-02-04T17:24:14.562Z,14.87
2019-02-04T17:26:41.544Z,11.80
2019-02-04T17:29:08.820Z,14.10
2019-02-04T17:31:35.798Z,14.40
2019-02-04T17:34:02.771Z,17.43
2019-02-04T17:36:29.498Z,16.60
2019-02-04T17:38:56.578Z,17.77
2019-02-04T17:41:23.511Z,16.97
2019-02-04T17:43:50.331Z,17.30
2019-02-04T17:46:17.187Z,15.87
2019-02-04T17:48:44.262Z,12.97
2019-02-04T17:51:11.522Z,15.17
2019-02-04T17:53:38.614Z,20.90
2019-02-04T17:56:07.366Z,17.43
2019-02-04T17:58:36.347Z,18.53
2019-02-04T18:01:04.788Z,17.73
2019-02-04T18:03:31.719Z,29.37
2019-02-04T18:05:58.543Z,25.53
2019-02-04T18:08:25.651Z,24.83
2019-02-04T18:10:53.277Z,21.20
2019-02-04T18:13:20.272Z,29.17
2019-02-04T18:16:06.843Z,35.20
2019-02-04T18:18:34.326Z,29.77
2019-02-04T18:21:01.715Z,29.63
2019-02-04T18:23:28.583Z,31.07
2019-02-04T18:25:55.611Z,26.50
2019-02-04T18:28:22.681Z,25.37
2019-02-04T18:30:49.632Z,21.87
2019-02-04T18:33:16.654Z,20.93
2019-02-04T18:35:43.893Z,18.70
2019-02-04T18:38:10.905Z,20.40
2019-02-04T18:40:38.021Z,21.80
2019-02-04T18:43:05.188Z,21.83
2019-02-04T18:45:32.849Z,23.97
2019-02-04T18:48:00.204Z,20.40
2019-02-04T18:50:28.017Z,17.13
2019-02-04T18:52:55.120Z,20.87
2019-02-04T18:55:24.549Z,19.83
2019-02-04T18:57:52.025Z,22.73
2019-02-04T19:00:21.307Z,20.43
2019-02-04T19:02:48.667Z,20.73
2019-02-04T19:05:16.871Z,23.10
2019-02-04T19:07:44.110Z,25.13
2019-02-04T19:10:12.960Z,25.37
2019-02-04T19:12:40.058Z,22.37
2019-02-04T19:15:29.500Z,23.67
2019-02-04T19:18:01.541Z,25.63
2019-02-04T19:20:28.757Z,22.43
2019-02-04T19:22:56.103Z,22.97
2019-02-04T19:25:23.082Z,26.77
2019-02-04T19:27:51.367Z,28.13
2019-02-04T19:30:33.004Z,23.13
2019-02-04T19:33:00.432Z,28.40
2019-02-04T19:35:27.431Z,20.67
2019-02-04T19:37:54.481Z,26.30
2019-02-04T19:40:21.524Z,21.23
2019-02-04T19:42:48.886Z,18.33
2019-02-04T19:45:17.137Z,23.73
2019-02-04T19:50:34.706Z,24.43
2019-02-04T19:53:01.749Z,21.57
2019-02-04T19:55:28.644Z,18.73
2019-02-04T19:58:15.224Z,20.17
2019-02-04T20:00:42.324Z,21.23
2019-02-04T20:03:09.320Z,19.93
2019-02-04T20:05:36.318Z,18.10
2019-02-04T20:08:04.107Z,19.00
2019-02-04T20:10:33.205Z,18.90
2019-02-04T20:13:00.463Z,19.57
2019-02-04T20:15:28.067Z,19.33
2019-02-04T20:17:55.189Z,19.10
2019-02-04T20:20:23.170Z,21.97
2019-02-04T20:22:50.312Z,19.17
2019-02-04T20:25:20.239Z,20.77
2019-02-04T20:27:47.556Z,16.73
2019-02-04T20:30:20.299Z,22.13
2019-02-04T20:32:47.291Z,18.47
2019-02-04T20:35:14.651Z,18.60
2019-02-04T20:37:41.384Z,20.53
2019-02-04T20:40:10.032Z,20.00
2019-02-04T20:42:37.039Z,21.63
2019-02-04T20:45:04.699Z,21.60
2019-02-04T20:47:31.466Z,24.83
2019-02-04T20:49:58.510Z,19.80
2019-02-04T20:52:25.417Z,25.70
2019-02-04T20:54:52.436Z,18.50
2019-02-04T20:57:19.170Z,19.27
2019-02-04T20:59:45.937Z,18.27
2019-02-04T21:02:12.778Z,18.77
2019-02-04T21:04:39.671Z,22.07
2019-02-04T21:07:08.278Z,18.37
2019-02-04T21:09:35.343Z,17.70
2019-02-04T21:12:02.180Z,16.57
2019-02-04T21:14:29.129Z,20.93
2019-02-04T21:16:56.406Z,19.83
2019-02-04T21:19:23.377Z,16.47
2019-02-04T21:21:50.270Z,22.20
2019-02-04T21:24:17.141Z,20.88
2019-02-04T21:26:44.063Z,23.52
2019-02-04T21:29:10.787Z,18.83
2019-02-04T21:31:37.701Z,23.13
2019-02-04T21:34:04.847Z,19.60
2019-02-04T21:36:31.967Z,17.00
2019-02-04T21:38:58.975Z,18.97
2019-02-04T21:41:28.032Z,15.73
2019-02-04T21:43:56.269Z,16.17
2019-02-04T21:46:23.199Z,18.97
2019-02-04T21:48:50.148Z,18.80
2019-02-04T21:51:17.122Z,18.03
2019-02-04T21:53:44.019Z,17.33
2019-02-04T21:56:10.932Z,18.17
2019-02-04T21:58:37.910Z,17.97
2019-02-04T22:01:05.069Z,21.10
2019-02-04T22:03:32.132Z,16.80
2019-02-04T22:05:58.954Z,17.83
2019-02-04T22:08:25.856Z,18.33
2019-02-04T22:10:52.995Z,18.87
2019-02-04T22:13:19.879Z,17.37
2019-02-04T22:15:47.305Z,18.57
2019-02-04T22:18:14.242Z,18.83
2019-02-04T22:20:41.503Z,17.33
2019-02-04T22:23:08.383Z,16.30
2019-02-04T22:25:35.383Z,18.87
2019-02-04T22:28:02.581Z,18.93
2019-02-04T22:30:29.603Z,17.00
2019-02-04T22:32:56.831Z,12.37
2019-02-04T22:35:23.861Z,12.87
2019-02-04T22:37:50.960Z,13.63
2019-02-04T22:40:20.359Z,17.33
2019-02-04T22:42:47.327Z,18.60
2019-02-04T22:45:14.623Z,15.57
2019-02-04T22:47:41.655Z,17.17
2019-02-04T22:50:14.766Z,17.03
2019-02-04T22:52:41.862Z,14.43
2019-02-04T22:55:09.102Z,15.47
2019-02-04T22:57:36.223Z,20.03
2019-02-04T23:00:29.379Z,17.27
2019-02-04T23:02:56.342Z,11.90
2019-02-04T23:05:23.283Z,13.73
2019-02-04T23:07:50.295Z,14.57
2019-02-04T23:10:17.035Z,14.63
2019-02-04T23:12:43.923Z,15.23
2019-02-04T23:15:10.959Z,19.87
2019-02-04T23:17:37.848Z,17.93
2019-02-04T23:20:05.377Z,17.17
2019-02-04T23:22:32.347Z,17.23
2019-02-04T23:24:59.439Z,18.57
2019-02-04T23:27:28.407Z,17.50
2019-02-04T23:29:55.447Z,17.87
2019-02-04T23:32:22.148Z,16.80
2019-02-04T23:34:49.008Z,17.10
2019-02-04T23:37:15.875Z,18.97
2019-02-04T23:39:42.614Z,15.97
2019-02-04T23:42:09.499Z,15.90
2019-02-04T23:44:36.342Z,15.50
2019-02-04T23:47:03.351Z,16.00
2019-02-04T23:49:30.059Z,14.57
2019-02-04T23:51:57.039Z,16.53
2019-02-04T23:54:23.743Z,12.83
2019-02-04T23:56:50.603Z,16.73
2019-02-04T23:59:17.466Z,13.97
